Time;durP1;ratioP1;P1;durP2;ratioP2;P2;SDS_P1;SDS_P2;PMS_P1;PMS_P2;Temp;Humidity;BMP_temperature;BMP_pressure;BME280_temperature;BME280_humidity;BME280_pressure;Samples;Min_cycle;Max_cycle;Signal;HPM_P1;HPM_P2
2022/12/11 00:01:53;;;;;;;;;;;;;;;10.02;92.20;97863.31;5047210;28;19964;-87
2022/12/11 00:04:18;;;;;;;;;;;;;;;9.80;94.12;97871.25;5044893;28;20367;-88
2022/12/11 00:06:43;;;;;;;;;;;;;;;9.93;94.38;97903.22;5047225;28;20421;-92
2022/12/11 00:09:09;;;;;;;;;;;;;;;9.84;94.49;97884.25;5048887;28;20008;-88
2022/12/11 00:11:35;;;;;;;;;;;;;;;9.95;95.06;97890.84;5048622;28;19917;-87
2022/12/11 00:14:00;;;;;;;;;;;;;;;10.06;94.13;97856.16;5046759;28;19940;-87
2022/12/11 00:16:25;;;;;;;;;;;;;;;9.97;94.58;97825.78;5042516;28;19916;-88
2022/12/11 00:18:51;;;;;;;;;;;;;;;10.08;93.50;97822.69;5027978;28;19924;-89
2022/12/11 00:21:16;;;;;;;;;;;;;;;10.06;92.74;97754.28;5026585;28;19913;-88
2022/12/11 00:23:41;;;;;;;;;;;;;;;10.11;92.63;97783.06;5028757;28;19951;-89
2022/12/11 00:26:08;;;;;;;;;;;;;;;10.08;92.37;97789.28;5031100;28;20016;-88
2022/12/11 00:28:34;;;;;;;;;;;;;;;10.13;92.22;97795.25;5047818;28;19921;-88
2022/12/11 00:31:02;;;;;;;;;;;;;;;10.05;92.39;97776.25;5028819;28;19923;-88
2022/12/11 00:33:27;;;;;;;;;;;;;;;9.90;93.12;97767.25;5037941;28;19924;-88
2022/12/11 00:35:53;;;;;;;;;;;;;;;9.93;93.33;97751.31;5036376;28;19916;-88
2022/12/11 00:38:19;;;;;;;;;;;;;;;9.97;93.61;97754.66;5047581;28;19951;-88
2022/12/11 00:40:45;;;;;;;;;;;;;;;10.06;92.78;97740.25;5046505;28;19920;-88
2022/12/11 00:43:10;;;;;;;;;;;;;;;9.94;93.17;97726.69;5028748;28;20363;-88
2022/12/11 00:45:36;;;;;;;;;;;;;;;9.85;93.62;97729.72;5048278;28;19924;-88
2022/12/11 00:48:02;;;;;;;;;;;;;;;9.67;96.58;97749.81;5037244;28;19927;-88
2022/12/11 00:50:27;;;;;;;;;;;;;;;9.55;97.96;97738.00;5031558;28;19962;-88
2022/12/11 00:52:53;;;;;;;;;;;;;;;9.37;99.02;97779.09;5039627;28;19956;-88
2022/12/11 00:55:18;;;;;;;;;;;;;;;9.13;100.00;97760.75;5047241;28;19913;-87
2022/12/11 00:57:44;;;;;;;;;;;;;;;8.93;100.00;97742.28;5047075;28;19920;-86
2022/12/11 01:00:10;;;;;;;;;;;;;;;9.40;100.00;97760.53;5045691;28;19931;-86
2022/12/11 01:02:36;;;;;;;;;;;;;;;9.35;100.00;97785.34;5037534;28;19917;-87
2022/12/11 01:05:02;;;;;;;;;;;;;;;9.36;100.00;97755.47;5040574;28;19920;-85
2022/12/11 01:07:27;;;;;;;;;;;;;;;9.46;100.00;97736.59;5046255;28;19919;-86
2022/12/11 01:12:36;;;;;;;;;;;;;;;9.93;100.00;97701.28;5046483;28;20403;-86
2022/12/11 01:15:02;;;;;;;;;;;;;;;10.06;100.00;97761.34;5027559;28;19996;-84
2022/12/11 01:17:27;;;;;;;;;;;;;;;9.99;100.00;97714.19;5040764;28;19927;-84
2022/12/11 01:19:53;;;;;;;;;;;;;;;9.98;100.00;97723.00;5041333;28;19956;-85
2022/12/11 01:22:18;;;;;;;;;;;;;;;9.93;100.00;97766.25;5050194;28;20553;-85
2022/12/11 01:24:44;;;;;;;;;;;;;;;9.89;100.00;97701.50;5049990;28;19920;-85
2022/12/11 01:27:09;;;;;;;;;;;;;;;10.23;100.00;97711.38;5049984;28;20034;-85
2022/12/11 01:29:34;;;;;;;;;;;;;;;10.38;100.00;97744.13;5050194;28;19916;-85
2022/12/11 01:32:00;;;;;;;;;;;;;;;10.40;100.00;97692.19;5048984;28;19943;-85
2022/12/11 01:34:27;;;;;;;;;;;;;;;10.86;100.00;97697.94;5050229;28;19921;-84
2022/12/11 01:36:53;;;;;;;;;;;;;;;11.01;100.00;97721.84;5050168;28;20011;-85
2022/12/11 01:39:18;;;;;;;;;;;;;;;11.19;100.00;97691.09;5049293;28;20478;-86
2022/12/11 01:41:43;;;;;;;;;;;;;;;11.01;100.00;97700.75;5031603;28;20446;-85
2022/12/11 01:44:14;;;;;;;;;;;;;;;10.71;100.00;97702.13;5049446;28;20006;-84
2022/12/11 01:46:40;;;;;;;;;;;;;;;10.84;99.74;97710.31;5049609;28;19962;-85
2022/12/11 01:49:11;;;;;;;;;;;;;;;10.54;99.24;97691.53;5050130;28;19956;-85
2022/12/11 01:51:40;;;;;;;;;;;;;;;10.61;100.00;97692.09;5031561;28;20302;-85
2022/12/11 01:54:07;;;;;;;;;;;;;;;10.50;99.43;97682.06;5049170;28;19925;-86
2022/12/11 01:56:34;;;;;;;;;;;;;;;10.68;100.00;97643.44;5049244;28;20386;-87
2022/12/11 01:59:06;;;;;;;;;;;;;;;10.76;98.88;97593.78;5049248;28;19966;-85
2022/12/11 02:01:34;;;;;;;;;;;;;;;10.37;99.98;97614.09;5048823;28;19917;-85
2022/12/11 02:04:00;;;;;;;;;;;;;;;10.32;100.00;97628.41;5048415;28;19921;-85
2022/12/11 02:06:33;;;;;;;;;;;;;;;10.43;99.96;97620.88;5048006;28;19921;-85
2022/12/11 02:08:59;;;;;;;;;;;;;;;10.56;100.00;97582.44;5048671;28;19920;-85
2022/12/11 02:11:29;;;;;;;;;;;;;;;10.88;98.24;97543.06;5049293;28;19975;-85
2022/12/11 02:14:07;;;;;;;;;;;;;;;10.26;100.00;97544.38;5049018;28;19956;-85
2022/12/11 02:16:51;;;;;;;;;;;;;;;10.56;99.21;97565.78;5048992;28;19917;-86
2022/12/11 02:19:34;;;;;;;;;;;;;;;10.68;100.00;97577.50;5048822;28;19916;-85
2022/12/11 02:22:04;;;;;;;;;;;;;;;10.71;97.72;97595.81;5049474;28;19921;-85
2022/12/11 02:24:36;;;;;;;;;;;;;;;10.37;100.00;97618.53;5031329;28;20369;-85
2022/12/11 02:27:14;;;;;;;;;;;;;;;10.01;100.00;97596.44;5049305;28;20715;-85
2022/12/11 02:29:48;;;;;;;;;;;;;;;10.42;100.00;97591.94;5049079;28;19920;-85
2022/12/11 02:32:16;;;;;;;;;;;;;;;10.51;100.00;97615.25;5048216;28;19971;-85
2022/12/11 02:34:48;;;;;;;;;;;;;;;10.53;99.63;97590.53;5048831;28;19917;-85
2022/12/11 02:37:19;;;;;;;;;;;;;;;10.44;100.00;97587.44;5048464;28;20014;-85
2022/12/11 02:39:45;;;;;;;;;;;;;;;10.29;100.00;97612.75;5048761;28;19917;-85
2022/12/11 02:42:12;;;;;;;;;;;;;;;10.28;100.00;97603.13;5048535;28;19920;-85
2022/12/11 02:44:39;;;;;;;;;;;;;;;10.29;100.00;97616.22;5048365;28;20391;-85
2022/12/11 02:47:06;;;;;;;;;;;;;;;10.28;100.00;97572.34;5048384;28;19918;-85
2022/12/11 02:49:32;;;;;;;;;;;;;;;10.53;100.00;97568.56;5048360;28;19913;-85
2022/12/11 02:51:59;;;;;;;;;;;;;;;10.18;100.00;97552.66;5047872;28;19927;-85
2022/12/11 02:54:28;;;;;;;;;;;;;;;10.52;100.00;97553.69;5048278;28;19939;-86
2022/12/11 02:56:58;;;;;;;;;;;;;;;10.27;100.00;97586.47;5048036;28;19936;-85
2022/12/11 02:59:28;;;;;;;;;;;;;;;10.26;100.00;97579.47;5048628;28;20015;-85
2022/12/11 03:01:54;;;;;;;;;;;;;;;10.57;100.00;97586.78;5048426;28;19917;-86
2022/12/11 03:04:23;;;;;;;;;;;;;;;10.52;99.98;97574.78;5048352;28;19920;-84
2022/12/11 03:06:50;;;;;;;;;;;;;;;10.51;99.97;97549.34;5047506;28;19928;-85
2022/12/11 03:09:15;;;;;;;;;;;;;;;10.54;100.00;97539.47;5047907;28;19916;-85
2022/12/11 03:11:41;;;;;;;;;;;;;;;10.75;99.12;97557.78;5047661;28;19923;-85
2022/12/11 03:14:07;;;;;;;;;;;;;;;10.73;98.89;97536.78;5047950;28;19920;-85
2022/12/11 03:16:32;;;;;;;;;;;;;;;10.28;100.00;97530.19;5047873;28;19928;-84
2022/12/11 03:19:00;;;;;;;;;;;;;;;10.19;100.00;97578.91;5047890;28;19917;-85
2022/12/11 03:21:31;;;;;;;;;;;;;;;10.66;99.89;97585.50;5047907;28;19964;-88
2022/12/11 03:24:06;;;;;;;;;;;;;;;10.72;98.42;97553.56;5047934;28;19916;-85
2022/12/11 03:26:36;;;;;;;;;;;;;;;10.84;97.66;97567.03;5047646;28;19921;-85
2022/12/11 03:29:05;;;;;;;;;;;;;;;10.87;96.79;97577.44;5047695;28;19920;-85
2022/12/11 03:31:36;;;;;;;;;;;;;;;10.52;99.29;97598.50;5047526;28;20015;-85
2022/12/11 03:34:03;;;;;;;;;;;;;;;10.65;98.53;97627.75;5046991;28;19913;-84
2022/12/11 03:36:33;;;;;;;;;;;;;;;10.71;97.58;97635.38;5047471;28;20010;-85
2022/12/11 03:39:01;;;;;;;;;;;;;;;10.52;100.00;97594.06;5029391;28;19960;-84
2022/12/11 03:41:28;;;;;;;;;;;;;;;10.78;100.00;97620.94;5029442;28;20309;-85
2022/12/11 03:43:54;;;;;;;;;;;;;;;10.84;100.00;97625.06;5047374;28;19917;-85
2022/12/11 03:46:21;;;;;;;;;;;;;;;10.79;100.00;97604.19;5047320;28;19956;-85
2022/12/11 03:48:47;;;;;;;;;;;;;;;10.76;100.00;97606.97;5046867;28;19921;-85
2022/12/11 03:51:14;;;;;;;;;;;;;;;11.01;100.00;97603.13;5047624;28;20015;-85
2022/12/11 03:53:39;;;;;;;;;;;;;;;11.18;100.00;97603.13;5047165;28;19920;-86
2022/12/11 03:56:07;;;;;;;;;;;;;;;11.04;99.27;97603.81;5047460;28;20377;-85
2022/12/11 03:58:32;;;;;;;;;;;;;;;11.34;99.69;97584.75;5046911;28;19960;-84
2022/12/11 04:00:58;;;;;;;;;;;;;;;11.29;98.08;97569.16;5046891;28;20009;-85
2022/12/11 04:03:23;;;;;;;;;;;;;;;11.38;98.84;97577.50;5047146;28;19975;-84
2022/12/11 04:05:50;;;;;;;;;;;;;;;11.15;98.14;97592.72;5047239;28;19920;-85
2022/12/11 04:08:16;;;;;;;;;;;;;;;11.06;98.85;97590.56;5046973;28;19921;-84
2022/12/11 04:10:42;;;;;;;;;;;;;;;11.32;97.90;97583.09;5046763;28;19952;-85
2022/12/11 04:13:08;;;;;;;;;;;;;;;11.14;98.57;97598.09;5047234;28;19956;-86
2022/12/11 04:15:34;;;;;;;;;;;;;;;11.29;98.65;97606.09;5046773;28;19924;-86
2022/12/11 04:26:12;;;;;;;;;;;;;;;11.19;99.58;97625.97;5046945;28;19974;-85
2022/12/11 04:28:38;;;;;;;;;;;;;;;11.56;97.52;97608.22;5046909;28;19917;-86
2022/12/11 04:31:03;;;;;;;;;;;;;;;11.23;97.96;97622.25;5047089;28;19919;-86
2022/12/11 04:33:29;;;;;;;;;;;;;;;11.44;97.33;97608.88;5046909;28;19999;-85
2022/12/11 04:35:58;;;;;;;;;;;;;;;11.67;95.15;97590.97;5046927;28;19914;-85
2022/12/11 04:38:23;;;;;;;;;;;;;;;11.27;96.78;97592.09;5046809;28;19927;-85
2022/12/11 04:40:48;;;;;;;;;;;;;;;11.44;96.85;97593.03;5046503;28;20015;-85
2022/12/11 04:43:14;;;;;;;;;;;;;;;11.21;97.96;97618.81;5046873;28;19971;-85
2022/12/11 04:45:39;;;;;;;;;;;;;;;11.27;98.98;97629.06;5046550;28;20572;-86
2022/12/11 04:48:04;;;;;;;;;;;;;;;11.31;100.00;97648.25;5046799;28;19916;-85
2022/12/11 04:50:30;;;;;;;;;;;;;;;11.69;100.00;97647.19;5046827;28;19920;-86
2022/12/11 04:52:56;;;;;;;;;;;;;;;11.69;98.89;97618.16;5046532;28;19976;-86
2022/12/11 04:55:21;;;;;;;;;;;;;;;11.75;99.13;97621.31;5049708;28;19920;-87
2022/12/11 04:57:46;;;;;;;;;;;;;;;11.61;99.46;97634.41;5050506;28;19919;-86
2022/12/11 05:00:12;;;;;;;;;;;;;;;11.73;98.64;97641.69;5050416;28;19917;-87
2022/12/11 05:02:39;;;;;;;;;;;;;;;12.04;97.03;97648.00;5050264;28;19982;-86
2022/12/11 05:05:05;;;;;;;;;;;;;;;11.84;96.44;97649.03;5050093;28;19916;-86
2022/12/11 05:07:30;;;;;;;;;;;;;;;11.72;96.69;97639.13;5050768;28;20787;-84
2022/12/11 05:09:56;;;;;;;;;;;;;;;11.80;95.79;97651.00;5031294;28;19920;-85
2022/12/11 05:12:22;;;;;;;;;;;;;;;11.90;95.12;97654.00;5049719;28;19925;-86
2022/12/11 05:14:50;;;;;;;;;;;;;;;12.00;93.63;97657.91;5050775;28;19916;-83
2022/12/11 05:17:15;;;;;;;;;;;;;;;12.02;92.62;97655.19;5050364;28;19924;-85
2022/12/11 05:19:41;;;;;;;;;;;;;;;12.06;92.53;97650.56;5049909;28;19916;-85
2022/12/11 05:22:06;;;;;;;;;;;;;;;11.83;93.32;97635.00;5050224;28;19912;-86
2022/12/11 05:24:31;;;;;;;;;;;;;;;11.49;95.99;97653.50;5049851;28;19916;-85
2022/12/11 05:26:57;;;;;;;;;;;;;;;11.45;94.70;97668.66;5050240;28;19916;-86
2022/12/11 05:29:22;;;;;;;;;;;;;;;11.31;98.52;97665.84;5049957;28;19964;-85
2022/12/11 05:31:47;;;;;;;;;;;;;;;11.57;99.00;97648.69;5049723;28;20778;-85
2022/12/11 05:34:14;;;;;;;;;;;;;;;11.91;97.64;97646.91;5049532;28;19921;-87
2022/12/11 05:36:39;;;;;;;;;;;;;;;11.90;96.37;97643.44;5050193;28;20322;-87
2022/12/11 05:39:05;;;;;;;;;;;;;;;11.99;94.75;97663.28;5049123;28;19912;-88
2022/12/11 05:41:31;;;;;;;;;;;;;;;12.06;94.06;97672.56;5048891;28;19931;-85
2022/12/11 05:43:57;;;;;;;;;;;;;;;12.21;92.35;97678.81;5049397;28;20386;-86
2022/12/11 05:46:23;;;;;;;;;;;;;;;11.94;93.24;97689.94;5049675;28;19916;-86
2022/12/11 05:48:49;;;;;;;;;;;;;;;11.71;95.76;97685.81;5049581;28;19927;-86
2022/12/11 05:51:16;;;;;;;;;;;;;;;11.84;96.00;97686.03;5049826;28;20468;-86
2022/12/11 05:53:42;;;;;;;;;;;;;;;11.54;97.19;97701.66;5047908;28;19920;-86
2022/12/11 05:56:09;;;;;;;;;;;;;;;11.83;97.31;97694.88;5049519;28;19912;-87
2022/12/11 05:58:35;;;;;;;;;;;;;;;11.85;98.03;97711.53;5049143;28;20389;-86
2022/12/11 06:01:01;;;;;;;;;;;;;;;11.93;98.36;97714.63;5031821;28;19956;-86
2022/12/11 06:03:26;;;;;;;;;;;;;;;12.29;96.82;97716.25;5048793;28;19921;-85
2022/12/11 06:05:51;;;;;;;;;;;;;;;12.21;96.79;97728.19;5049328;28;19925;-86
2022/12/11 06:08:17;;;;;;;;;;;;;;;12.22;97.11;97738.69;5044721;28;20354;-88
2022/12/11 06:10:46;;;;;;;;;;;;;;;12.34;97.57;97738.03;5037809;28;19950;-87
2022/12/11 06:13:11;;;;;;;;;;;;;;;12.72;95.42;97736.91;5048823;28;19963;-84
2022/12/11 06:15:37;;;;;;;;;;;;;;;12.70;94.67;97744.06;5048400;28;19966;-85
2022/12/11 06:18:02;;;;;;;;;;;;;;;12.70;93.93;97752.84;5041992;28;19933;-86
2022/12/11 06:20:29;;;;;;;;;;;;;;;12.63;94.47;97751.47;5022530;28;20271;-86
2022/12/11 06:22:55;;;;;;;;;;;;;;;12.75;94.24;97743.81;5021933;28;19923;-86
2022/12/11 06:25:20;;;;;;;;;;;;;;;13.02;92.71;97750.22;5037405;28;19920;-86
2022/12/11 06:27:45;;;;;;;;;;;;;;;13.03;91.59;97762.50;5047997;28;20389;-86
2022/12/11 06:30:11;;;;;;;;;;;;;;;12.80;92.84;97777.00;5048028;28;19916;-86
2022/12/11 06:32:36;;;;;;;;;;;;;;;12.61;93.41;97778.97;5041699;28;19921;-86
2022/12/11 06:35:01;;;;;;;;;;;;;;;12.45;95.63;97774.50;5047951;28;19979;-86
2022/12/11 06:37:27;;;;;;;;;;;;;;;12.69;96.34;97777.59;5048644;28;20685;-83
2022/12/11 06:39:52;;;;;;;;;;;;;;;12.85;95.11;97766.16;5048648;28;19917;-85
2022/12/11 06:42:17;;;;;;;;;;;;;;;13.20;93.06;97758.91;5048467;28;20383;-86
2022/12/11 06:44:43;;;;;;;;;;;;;;;13.27;92.16;97762.09;5048171;28;20027;-84
2022/12/11 06:47:08;;;;;;;;;;;;;;;13.15;92.19;97768.91;5048897;28;20034;-86
2022/12/11 06:49:33;;;;;;;;;;;;;;;12.87;94.39;97769.59;5048584;28;20030;-84
2022/12/11 06:51:58;;;;;;;;;;;;;;;13.10;94.75;97768.34;5047502;28;19912;-85
2022/12/11 06:54:27;;;;;;;;;;;;;;;13.33;91.89;97764.41;5045474;28;20330;-83
2022/12/11 06:56:52;;;;;;;;;;;;;;;13.35;92.97;97764.34;5047997;28;19916;-83
2022/12/11 06:59:17;;;;;;;;;;;;;;;13.27;93.38;97751.50;5047931;28;19938;-84
2022/12/11 07:01:44;;;;;;;;;;;;;;;13.16;94.92;97746.81;5047244;28;20387;-85
2022/12/11 07:04:09;;;;;;;;;;;;;;;13.38;94.90;97748.28;5041017;28;19921;-83
2022/12/11 07:06:34;;;;;;;;;;;;;;;13.78;94.35;97746.78;5039788;28;19920;-83
2022/12/11 07:09:02;;;;;;;;;;;;;;;13.94;91.36;97753.84;5041436;28;19921;-83
2022/12/11 07:11:27;;;;;;;;;;;;;;;13.77;94.12;97771.56;5026379;28;19913;-83
2022/12/11 07:13:52;;;;;;;;;;;;;;;13.82;95.07;97779.25;5011159;28;19931;-83
2022/12/11 07:16:18;;;;;;;;;;;;;;;14.36;91.26;97777.84;5037270;28;19921;-84
2022/12/11 07:18:46;;;;;;;;;;;;;;;14.07;92.16;97783.09;5047082;28;20612;-84
2022/12/11 07:21:12;;;;;;;;;;;;;;;14.00;94.04;97782.63;5047270;28;20404;-84
2022/12/11 07:23:37;;;;;;;;;;;;;;;14.35;91.75;97781.44;5046911;28;19920;-83
2022/12/11 07:26:07;;;;;;;;;;;;;;;14.24;92.23;97790.03;5026156;28;19917;-84
2022/12/11 07:28:33;;;;;;;;;;;;;;;14.32;92.52;97795.75;5036015;28;20356;-84
2022/12/11 07:30:58;;;;;;;;;;;;;;;14.49;91.36;97792.94;5041846;28;19920;-83
2022/12/11 07:33:23;;;;;;;;;;;;;;;14.67;89.95;97788.34;5027313;28;19921;-83
2022/12/11 07:35:49;;;;;;;;;;;;;;;14.65;90.22;97792.84;5015402;28;20309;-84
2022/12/11 07:38:14;;;;;;;;;;;;;;;14.69;90.82;97790.88;5032801;28;19974;-84
2022/12/11 07:40:39;;;;;;;;;;;;;;;14.95;88.98;97780.41;5047421;28;19916;-83
2022/12/11 07:43:05;;;;;;;;;;;;;;;15.05;87.62;97781.56;5046044;28;20435;-84
2022/12/11 07:45:30;;;;;;;;;;;;;;;15.04;88.66;97787.81;5047774;28;19917;-84
2022/12/11 07:47:55;;;;;;;;;;;;;;;15.11;89.78;97785.63;5046871;28;19920;-82
2022/12/11 07:50:21;;;;;;;;;;;;;;;15.26;88.81;97789.97;5047190;28;20079;-83
2022/12/11 07:52:46;;;;;;;;;;;;;;;15.17;91.60;97791.38;5047121;28;20406;-84
2022/12/11 07:55:11;;;;;;;;;;;;;;;15.14;90.79;97783.63;5046997;28;19920;-83
2022/12/11 07:57:37;;;;;;;;;;;;;;;15.11;91.01;97786.47;5047028;28;20386;-83
2022/12/11 08:00:03;;;;;;;;;;;;;;;15.36;89.87;97787.56;5042656;28;19924;-83
2022/12/11 08:02:28;;;;;;;;;;;;;;;15.71;87.69;97781.75;5040122;28;19978;-83
2022/12/11 08:04:54;;;;;;;;;;;;;;;16.02;85.98;97792.97;5046682;28;19913;-83
2022/12/11 08:07:19;;;;;;;;;;;;;;;15.74;88.74;97794.81;5046899;28;19944;-84
2022/12/11 08:09:44;;;;;;;;;;;;;;;15.93;87.99;97790.00;5047245;28;19913;-84
2022/12/11 08:12:10;;;;;;;;;;;;;;;16.23;86.56;97782.69;5047640;28;19992;-84
2022/12/11 08:14:36;;;;;;;;;;;;;;;16.38;86.58;97788.78;5047012;28;19927;-84
2022/12/11 08:17:01;;;;;;;;;;;;;;;16.35;87.09;97802.31;5046281;28;19920;-82
2022/12/11 08:19:26;;;;;;;;;;;;;;;16.39;87.72;97803.78;5046296;28;19923;-83
2022/12/11 08:21:52;;;;;;;;;;;;;;;16.34;86.63;97797.94;5044381;28;19943;-84
2022/12/11 08:24:19;;;;;;;;;;;;;;;16.47;86.65;97769.53;5025324;28;19939;-84
2022/12/11 08:26:45;;;;;;;;;;;;;;;16.87;84.26;97763.22;5027705;28;19924;-83
2022/12/11 08:29:10;;;;;;;;;;;;;;;17.02;82.82;97756.78;5029479;28;19928;-84
2022/12/11 08:31:35;;;;;;;;;;;;;;;16.92;82.78;97756.59;5035642;28;19921;-83
2022/12/11 08:34:01;;;;;;;;;;;;;;;17.02;83.99;97763.94;5045575;28;20011;-83
2022/12/11 08:36:26;;;;;;;;;;;;;;;17.12;86.13;97768.47;5045763;28;19920;-85
2022/12/11 08:38:53;;;;;;;;;;;;;;;17.40;83.31;97774.47;5040745;28;20003;-85
2022/12/11 08:41:20;;;;;;;;;;;;;;;17.38;81.64;97778.19;5047554;28;19916;-84
2022/12/11 08:43:46;;;;;;;;;;;;;;;16.79;83.91;97777.91;5050614;28;19921;-83
2022/12/11 08:46:12;;;;;;;;;;;;;;;16.94;84.95;97783.97;5031742;28;19982;-84
2022/12/11 08:48:38;;;;;;;;;;;;;;;17.05;83.95;97788.53;5050560;28;19928;-86
2022/12/11 08:51:05;;;;;;;;;;;;;;;16.97;84.28;97791.72;5050469;28;19928;-84
2022/12/11 08:53:30;;;;;;;;;;;;;;;17.00;82.88;97791.50;5050986;28;19916;-84
2022/12/11 08:55:59;;;;;;;;;;;;;;;17.13;83.02;97811.94;5050021;28;20307;-84
2022/12/11 08:58:25;;;;;;;;;;;;;;;17.40;82.13;97814.44;5032375;28;20017;-84
2022/12/11 09:00:50;;;;;;;;;;;;;;;17.20;82.87;97807.88;5050613;28;19920;-83
2022/12/11 09:03:15;;;;;;;;;;;;;;;17.34;82.92;97798.91;5049671;28;19920;-83
2022/12/11 09:05:40;;;;;;;;;;;;;;;17.35;83.94;97789.94;5050311;28;19920;-84
2022/12/11 09:08:06;;;;;;;;;;;;;;;17.56;83.92;97797.31;5050890;28;20369;-83
2022/12/11 09:10:31;;;;;;;;;;;;;;;17.49;83.29;97812.94;5049675;28;20007;-83
2022/12/11 09:12:56;;;;;;;;;;;;;;;17.59;81.91;97816.59;5050624;28;19920;-84
2022/12/11 09:15:22;;;;;;;;;;;;;;;17.51;82.90;97813.66;5048967;28;19927;-84
2022/12/11 09:17:47;;;;;;;;;;;;;;;17.61;81.81;97809.34;5045870;28;20386;-87
2022/12/11 09:20:12;;;;;;;;;;;;;;;17.49;81.88;97796.94;5045289;28;19923;-84
2022/12/11 09:22:38;;;;;;;;;;;;;;;17.40;82.17;97793.13;5049574;28;19988;-85
2022/12/11 09:25:04;;;;;;;;;;;;;;;17.43;81.42;97794.72;5050067;28;20003;-83
2022/12/11 09:27:29;;;;;;;;;;;;;;;17.57;80.86;97783.88;5049956;28;20497;-84
2022/12/11 09:29:54;;;;;;;;;;;;;;;17.59;81.24;97771.28;5049911;28;19928;-83
2022/12/11 09:32:20;;;;;;;;;;;;;;;17.43;82.52;97773.41;5048975;28;19927;-87
2022/12/11 09:34:45;;;;;;;;;;;;;;;16.95;84.75;97783.00;5048696;28;19943;-83
2022/12/11 09:37:10;;;;;;;;;;;;;;;16.80;85.29;97778.75;5049576;28;19916;-84
2022/12/11 09:39:36;;;;;;;;;;;;;;;16.76;85.91;97772.78;5040776;28;19917;-83
2022/12/11 09:42:01;;;;;;;;;;;;;;;17.23;83.18;97757.03;5049222;28;19913;-83
2022/12/11 09:44:42;;;;;;;;;;;;;;;17.47;81.38;97751.72;5047472;28;20390;-84
2022/12/11 09:47:15;;;;;;;;;;;;;;;17.42;81.96;97759.19;5049498;28;19917;-85
2022/12/11 09:49:42;;;;;;;;;;;;;;;17.44;82.72;97749.28;5049121;28;19917;-83
2022/12/11 09:52:16;;;;;;;;;;;;;;;17.30;84.56;97747.66;5030703;28;20376;-83
2022/12/11 09:54:48;;;;;;;;;;;;;;;17.00;84.77;97732.91;5048738;28;20403;-83
2022/12/11 09:57:13;;;;;;;;;;;;;;;16.88;84.03;97736.47;5030540;28;20378;-83
2022/12/11 09:59:56;;;;;;;;;;;;;;;17.30;79.65;97738.78;5048033;28;19917;-84
2022/12/11 10:02:31;;;;;;;;;;;;;;;17.48;74.36;97732.09;5047693;28;19917;-87
2022/12/11 10:05:15;;;;;;;;;;;;;;;17.61;74.15;97728.50;5047917;28;19924;-84
2022/12/11 10:07:46;;;;;;;;;;;;;;;17.60;76.42;97719.66;5047803;28;19921;-85
2022/12/11 10:10:11;;;;;;;;;;;;;;;17.75;77.74;97716.81;5047993;28;19920;-83
2022/12/11 10:12:51;;;;;;;;;;;;;;;18.03;74.62;97711.09;5048605;28;19923;-84
2022/12/11 10:15:19;;;;;;;;;;;;;;;18.27;74.32;97714.66;5049063;28;19919;-82
2022/12/11 10:17:45;;;;;;;;;;;;;;;18.43;73.13;97716.00;5049053;28;19912;-84
2022/12/11 10:20:19;;;;;;;;;;;;;;;18.73;71.82;97724.38;5049454;28;19916;-83
2022/12/11 10:22:45;;;;;;;;;;;;;;;18.68;73.71;97713.22;5048870;28;20645;-84
2022/12/11 10:25:31;;;;;;;;;;;;;;;18.78;73.86;97704.34;5048183;28;19928;-84
2022/12/11 10:27:56;;;;;;;;;;;;;;;18.68;75.50;97718.56;5048261;28;20314;-84
2022/12/11 10:30:22;;;;;;;;;;;;;;;18.66;73.46;97710.69;5048387;28;19917;-83
2022/12/11 10:33:01;;;;;;;;;;;;;;;18.55;73.71;97692.84;5048068;28;19917;-85
2022/12/11 10:35:26;;;;;;;;;;;;;;;18.60;71.57;97671.13;5046313;28;19920;-83
2022/12/11 10:37:54;;;;;;;;;;;;;;;18.25;70.75;97662.25;5048359;28;19913;-83
2022/12/11 10:40:20;;;;;;;;;;;;;;;18.22;73.27;97662.50;5044124;28;19947;-83
2022/12/11 10:42:53;;;;;;;;;;;;;;;18.59;72.78;97674.75;5041072;28;21405;-85
2022/12/11 10:45:18;;;;;;;;;;;;;;;18.26;75.44;97671.13;5043531;28;20059;-86
2022/12/11 10:47:44;;;;;;;;;;;;;;;17.92;75.44;97671.09;5044405;28;20024;-85
2022/12/11 10:50:23;;;;;;;;;;;;;;;18.09;64.98;97683.13;5048664;28;20425;-84
2022/12/11 10:52:49;;;;;;;;;;;;;;;18.86;57.60;97678.84;5040208;28;20662;-84
2022/12/11 10:55:20;;;;;;;;;;;;;;;19.16;61.12;97678.19;5018902;28;19967;-86
2022/12/11 10:57:52;;;;;;;;;;;;;;;19.31;61.85;97660.88;5036082;28;19960;-83
2022/12/11 11:00:27;;;;;;;;;;;;;;;19.68;60.39;97662.31;5044321;28;19939;-83
2022/12/11 11:02:53;;;;;;;;;;;;;;;19.81;62.51;97671.00;5035557;28;19927;-84
2022/12/11 11:05:33;;;;;;;;;;;;;;;19.69;62.42;97674.69;5033439;28;19974;-84
2022/12/11 11:08:03;;;;;;;;;;;;;;;19.96;60.73;97668.00;5037275;28;19921;-82
2022/12/11 11:10:28;;;;;;;;;;;;;;;20.10;62.29;97659.63;5046866;28;19920;-86
2022/12/11 11:12:58;;;;;;;;;;;;;;;20.19;62.95;97655.31;5045244;28;19916;-87
2022/12/11 11:15:30;;;;;;;;;;;;;;;19.95;64.49;97652.94;5040352;28;19916;-84
2022/12/11 11:18:08;;;;;;;;;;;;;;;19.92;64.85;97639.81;5043283;28;19913;-84
2022/12/11 11:20:34;;;;;;;;;;;;;;;19.99;63.46;97630.28;5032071;28;20389;-85
2022/12/11 11:23:01;;;;;;;;;;;;;;;20.02;63.82;97627.34;5038877;28;19917;-87
2022/12/11 11:25:28;;;;;;;;;;;;;;;20.17;62.70;97631.38;5041784;28;19912;-85
2022/12/11 11:27:55;;;;;;;;;;;;;;;19.96;63.89;97623.38;5046889;28;19916;-85
2022/12/11 11:30:23;;;;;;;;;;;;;;;20.02;63.06;97625.50;5046901;28;20520;-86
2022/12/11 11:32:50;;;;;;;;;;;;;;;20.08;60.70;97631.28;5046415;28;20389;-84
2022/12/11 11:35:17;;;;;;;;;;;;;;;20.08;61.94;97625.94;5044605;28;20314;-87
2022/12/11 11:37:52;;;;;;;;;;;;;;;20.00;60.77;97607.88;5044912;28;19996;-84
2022/12/11 11:40:24;;;;;;;;;;;;;;;20.14;61.16;97609.34;5038174;28;19924;-84
2022/12/11 11:43:05;;;;;;;;;;;;;;;20.03;63.14;97615.66;5042004;28;20415;-84
2022/12/11 11:45:33;;;;;;;;;;;;;;;20.20;61.49;97614.16;5040899;28;19920;-87
2022/12/11 11:47:59;;;;;;;;;;;;;;;20.19;60.08;97612.50;5039777;28;20398;-84
2022/12/11 11:50:28;;;;;;;;;;;;;;;20.07;60.97;97614.41;5040430;28;19921;-86
2022/12/11 11:53:01;;;;;;;;;;;;;;;19.72;63.67;97615.56;5044056;28;19974;-85
2022/12/11 11:55:40;;;;;;;;;;;;;;;20.10;60.10;97622.16;5045794;28;19919;-85
2022/12/11 11:58:11;;;;;;;;;;;;;;;19.28;60.64;97588.97;5046390;28;20003;-84
2022/12/11 12:00:36;;;;;;;;;;;;;;;19.70;58.47;97601.50;5028833;28;20003;-84
2022/12/11 12:03:09;;;;;;;;;;;;;;;19.47;61.00;97604.31;5046258;28;20007;-85
2022/12/11 12:05:38;;;;;;;;;;;;;;;19.61;61.90;97619.16;5046827;28;19921;-84
2022/12/11 12:08:23;;;;;;;;;;;;;;;19.59;64.25;97609.59;5046015;28;19959;-86
2022/12/11 12:11:12;;;;;;;;;;;;;;;19.61;63.82;97602.28;5042739;28;19917;-84
2022/12/11 12:13:56;;;;;;;;;;;;;;;19.38;63.84;97591.72;5046531;28;19924;-83
2022/12/11 12:16:21;;;;;;;;;;;;;;;19.48;63.47;97584.63;5043022;28;19916;-83
2022/12/11 12:18:57;;;;;;;;;;;;;;;19.60;63.02;97581.88;5046294;28;19924;-83
2022/12/11 12:21:36;;;;;;;;;;;;;;;19.72;62.88;97591.50;5042413;28;20676;-83
2022/12/11 12:24:09;;;;;;;;;;;;;;;19.55;61.21;97589.44;5045550;28;19963;-83
2022/12/11 12:26:36;;;;;;;;;;;;;;;19.68;60.02;97582.91;5041675;28;19924;-83
2022/12/11 12:29:01;;;;;;;;;;;;;;;19.66;61.42;97576.84;5047201;28;19932;-85
2022/12/11 12:31:29;;;;;;;;;;;;;;;19.39;64.25;97581.88;5047019;28;19909;-85
2022/12/11 12:33:58;;;;;;;;;;;;;;;19.50;61.58;97577.31;5046332;28;19916;-85
2022/12/11 12:36:30;;;;;;;;;;;;;;;19.80;60.25;97583.72;5046852;28;19951;-84
2022/12/11 12:39:14;;;;;;;;;;;;;;;19.71;61.86;97589.84;5046562;28;19934;-85
2022/12/11 12:41:42;;;;;;;;;;;;;;;19.36;63.36;97590.16;5046255;28;19917;-85
2022/12/11 12:44:12;;;;;;;;;;;;;;;19.79;61.71;97590.03;5046041;28;19916;-84
2022/12/11 12:46:37;;;;;;;;;;;;;;;19.87;61.26;97594.72;5046925;28;19912;-84
2022/12/11 12:49:04;;;;;;;;;;;;;;;19.65;62.49;97583.19;5046878;28;19920;-85
2022/12/11 12:51:29;;;;;;;;;;;;;;;19.55;60.10;97584.94;5046966;28;19916;-84
2022/12/11 12:53:57;;;;;;;;;;;;;;;19.28;64.06;97590.81;5046925;28;19913;-84
2022/12/11 12:56:23;;;;;;;;;;;;;;;19.36;63.62;97588.31;5046825;28;19913;-85
2022/12/11 12:58:49;;;;;;;;;;;;;;;19.12;60.12;97581.41;5046186;28;19923;-86